PADL/DLG METAR and TAF weather

Enter ICAO airport designator
Station Type Date Time Source
PADL METAR 2019/02/16 06:57 UTC NOAA

PADL 160657Z 35007G13KT 1 3/4SM -SN BR OVC014 M06/M07 A2991


Station Type Date Time Source
PADL Decoded METAR 2019/02/16 06:57 UTC NOAA

Dillingham, Dillingham Airport, AK, United States (PADL) 59-03N 158-31W 29M
Feb 16, 2019 - 01:57 AM EST / 2019.02.16 0657 UTC
Wind: from the N (350 degrees) at 8 MPH (7 KT) gusting to 15 MPH (13 KT):0
Visibility: 1 3/4 mile(s):0
Sky conditions: overcast
Weather: light snow; mist
Temperature: 21 F (-6 C)
Windchill: 12 F (-11 C):1
Dew Point: 19 F (-7 C)
Relative Humidity: 92%
Pressure (altimeter): 29.91 in. Hg (1012 hPa)
ob: PADL 160657Z 35007G13KT 1 3/4SM -SN BR OVC014 M06/M07 A2991
cycle: 7

Station Type Date Time Source
PADL TAF 2019/02/16 06:30 UTC NOAA

TAF PADL 160527Z 1606/1706 01012KT 3SM -SN BR OVC015
FM161000 VRB04KT P6SM OVC015
FM170000 04010G20KT 2SM -SN BR OVC010


Example: see airport list